Time;durP1;ratioP1;P1;durP2;ratioP2;P2;SDS_P1;SDS_P2;PMS_P1;PMS_P2;Temp;Humidity;BMP_temperature;BMP_pressure;BME280_temperature;BME280_humidity;BME280_pressure;Samples;Min_cycle;Max_cycle;Signal;HPM_P1;HPM_P2
2023/10/12 00:02:16;;;;;;;7.53;1.90;;;20.60;99.90;;;;;;5089529;28;20040;-75
2023/10/12 00:04:43;;;;;;;9.27;2.28;;;20.60;99.90;;;;;;5090088;28;20066;-76
2023/10/12 00:07:15;;;;;;;9.68;2.50;;;21.10;99.90;;;;;;5073226;28;20071;-75
2023/10/12 00:09:48;;;;;;;12.68;1.83;;;21.10;99.90;;;;;;5089549;28;20040;-75
2023/10/12 00:12:23;;;;;;;9.75;2.60;;;20.00;99.90;;;;;;5089333;28;20165;-76
2023/10/12 00:14:50;;;;;;;7.65;2.08;;;20.70;99.90;;;;;;5089012;28;20040;-75
2023/10/12 00:17:18;;;;;;;7.20;1.75;;;20.40;99.90;;;;;;5089084;28;20040;-76
2023/10/12 00:19:44;;;;;;;12.48;3.60;;;20.90;99.90;;;;;;5089177;28;20071;-76
2023/10/12 00:22:11;;;;;;;9.45;2.28;;;20.60;99.90;;;;;;5071786;28;20152;-76
2023/10/12 00:24:38;;;;;;;13.93;2.15;;;20.60;99.90;;;;;;5072555;28;20077;-76
2023/10/12 00:27:05;;;;;;;11.07;1.70;;;20.10;99.90;;;;;;5093110;28;20036;-75
2023/10/12 00:29:32;;;;;;;10.35;2.05;;;20.20;99.90;;;;;;5094110;28;20381;-75
2023/10/12 00:31:59;;;;;;;8.55;2.50;;;20.30;99.90;;;;;;5077419;28;20040;-76
2023/10/12 00:34:34;;;;;;;8.85;1.88;;;20.70;99.90;;;;;;5093860;28;20101;-76
2023/10/12 00:37:03;;;;;;;11.43;1.95;;;20.60;99.90;;;;;;5093840;28;20144;-76
2023/10/12 00:39:46;;;;;;;11.48;2.40;;;20.30;99.90;;;;;;5093982;28;20040;-76
2023/10/12 00:42:17;;;;;;;10.63;2.33;;;19.80;99.90;;;;;;5076127;28;20036;-76
2023/10/12 00:44:47;;;;;;;10.02;2.13;;;20.60;99.90;;;;;;5093649;28;20036;-76
2023/10/12 00:47:19;;;;;;;11.25;3.60;;;20.70;99.90;;;;;;5093828;28;20032;-76
2023/10/12 00:49:48;;;;;;;19.17;3.73;;;20.40;99.90;;;;;;5076417;28;20430;-75
2023/10/12 00:52:23;;;;;;;12.88;2.50;;;20.90;99.90;;;;;;5093461;28;20680;-76
2023/10/12 00:54:55;;;;;;;11.13;2.58;;;19.80;99.90;;;;;;5076395;28;20040;-76
2023/10/12 00:57:22;;;;;;;8.98;2.45;;;20.70;99.90;;;;;;5093389;28;20035;-76
2023/10/12 00:59:51;;;;;;;10.57;2.28;;;21.00;99.90;;;;;;5076485;28;20093;-76
2023/10/12 01:02:21;;;;;;;11.57;2.42;;;20.10;99.90;;;;;;5092345;28;20051;-76
2023/10/12 01:04:48;;;;;;;12.77;2.13;;;20.60;99.90;;;;;;5092355;28;20040;-76
2023/10/12 01:07:20;;;;;;;12.70;2.25;;;19.90;99.90;;;;;;5092023;28;20461;-76
2023/10/12 01:09:48;;;;;;;15.95;2.58;;;20.00;99.90;;;;;;5076234;28;20047;-76
2023/10/12 01:12:14;;;;;;;21.05;2.92;;;19.80;99.90;;;;;;5092870;28;20036;-76
2023/10/12 01:14:47;;;;;;;19.33;2.83;;;20.80;99.90;;;;;;5093533;28;20089;-76
2023/10/12 01:17:17;;;;;;;24.48;3.50;;;20.50;99.90;;;;;;5093336;28;20031;-76
2023/10/12 01:19:46;;;;;;;10.18;2.17;;;20.40;99.90;;;;;;5075565;28;20555;-76
2023/10/12 01:22:13;;;;;;;10.32;2.75;;;19.80;99.90;;;;;;5091900;28;20050;-76
2023/10/12 01:25:11;;;;;;;8.02;2.30;;;20.90;99.90;;;;;;5075816;28;20035;-76
2023/10/12 01:27:30;;;;;;;9.27;3.05;;;20.00;99.90;;;;;;5092111;28;20097;-76
2023/10/12 01:30:13;;;;;;;14.00;2.65;;;20.40;99.90;;;;;;5092419;28;20040;-76
2023/10/12 01:32:38;;;;;;;12.57;2.58;;;20.50;99.90;;;;;;5075422;28;20089;-76
2023/10/12 01:35:05;;;;;;;12.10;2.78;;;20.30;99.90;;;;;;5076175;28;20040;-76
2023/10/12 01:37:41;;;;;;;11.68;2.05;;;20.40;99.90;;;;;;5092838;28;20086;-76
2023/10/12 01:40:14;;;;;;;14.52;2.20;;;20.50;99.90;;;;;;5092533;28;20043;-76
2023/10/12 01:45:19;;;;;;;7.90;1.95;;;20.20;99.90;;;;;;5092397;28;20040;-76
2023/10/12 01:47:54;;;;;;;7.22;2.30;;;20.40;99.90;;;;;;5092378;28;20032;-76
2023/10/12 01:50:20;;;;;;;12.02;2.53;;;20.30;99.90;;;;;;5092507;28;20115;-76
2023/10/12 01:52:47;;;;;;;13.68;2.05;;;20.30;99.90;;;;;;5091899;28;20131;-76
2023/10/12 01:55:18;;;;;;;13.00;2.70;;;20.50;99.90;;;;;;5092301;28;20474;-76
2023/10/12 01:57:52;;;;;;;14.38;4.57;;;20.40;99.90;;;;;;5091301;28;20040;-76
2023/10/12 02:00:24;;;;;;;19.95;3.05;;;20.30;99.90;;;;;;5092488;28;20117;-76
2023/10/12 02:03:00;;;;;;;13.80;2.15;;;20.00;99.90;;;;;;5091706;28;20093;-76
2023/10/12 02:05:34;;;;;;;11.70;2.50;;;19.80;99.90;;;;;;5092101;28;20467;-76
2023/10/12 02:08:05;;;;;;;12.27;3.03;;;20.10;99.90;;;;;;5075174;28;20505;-76
2023/10/12 02:10:41;;;;;;;6.53;1.92;;;20.00;99.90;;;;;;5091611;28;20089;-76
2023/10/12 02:13:07;;;;;;;12.82;1.90;;;20.30;99.90;;;;;;5092008;28;20494;-76
2023/10/12 02:15:32;;;;;;;11.48;2.63;;;20.60;99.90;;;;;;5092166;28;20055;-76
2023/10/12 02:17:59;;;;;;;11.23;3.08;;;20.20;99.90;;;;;;5092236;28;20491;-76
2023/10/12 02:20:32;;;;;;;6.28;1.98;;;20.10;99.90;;;;;;5091060;28;20040;-76
2023/10/12 02:23:01;;;;;;;10.73;1.92;;;20.20;99.90;;;;;;5091109;28;20125;-76
2023/10/12 02:25:28;;;;;;;11.73;2.58;;;20.20;99.90;;;;;;5091618;28;20072;-76
2023/10/12 02:27:58;;;;;;;6.97;1.85;;;20.30;99.90;;;;;;5091473;28;20120;-76
2023/10/12 02:30:30;;;;;;;8.82;1.88;;;20.20;99.90;;;;;;5090206;28;20036;-76
2023/10/12 02:33:06;;;;;;;11.93;2.95;;;20.00;99.90;;;;;;5073596;28;20036;-76
2023/10/12 02:35:36;;;;;;;9.05;2.08;;;20.20;99.90;;;;;;5090980;28;20040;-76
2023/10/12 02:38:04;;;;;;;7.88;1.70;;;19.80;99.90;;;;;;5091185;28;20044;-76
2023/10/12 02:40:32;;;;;;;7.90;2.22;;;19.70;99.90;;;;;;5091099;28;20036;-76
2023/10/12 02:42:59;;;;;;;10.07;1.98;;;19.50;99.90;;;;;;5091246;28;20048;-76
2023/10/12 02:45:28;;;;;;;8.75;1.52;;;19.50;99.90;;;;;;5074340;28;20040;-76
2023/10/12 02:47:54;;;;;;;10.80;2.22;;;;;;;;;;5090931;28;20036;-76
2023/10/12 02:50:27;;;;;;;8.23;2.28;;;19.60;99.90;;;;;;5086165;28;20040;-76
2023/10/12 02:52:53;;;;;;;;;;;20.50;99.90;;;;;;5070982;28;20047;-76
2023/10/12 02:58:06;;;;;;;8.52;2.05;;;19.60;99.90;;;;;;5070334;28;20492;-76
2023/10/12 03:00:43;;;;;;;8.75;2.30;;;19.90;99.90;;;;;;5071125;28;20044;-76
2023/10/12 03:03:27;;;;;;;12.98;1.50;;;19.90;99.90;;;;;;5070719;28;20036;-76
2023/10/12 03:05:58;;;;;;;7.03;2.08;;;19.40;99.90;;;;;;5070032;28;20055;-76
2023/10/12 03:08:23;;;;;;;9.10;1.80;;;20.30;99.90;;;;;;5070758;28;20488;-76
2023/10/12 03:13:34;;;;;;;10.27;2.00;;;20.00;99.90;;;;;;5070895;28;20049;-76
2023/10/12 03:16:25;;;;;;;5.35;1.90;;;19.40;99.90;;;;;;5071502;28;20067;-76
2023/10/12 03:21:35;;;;;;;9.85;1.80;;;19.70;99.90;;;;;;5068631;28;20041;-76
2023/10/12 03:24:02;;;;;;;20.25;3.00;;;;;;;;;;5069657;28;20033;-76
2023/10/12 03:26:29;;;;;;;6.63;1.40;;;19.80;99.90;;;;;;5070209;28;20131;-76
2023/10/12 03:29:08;;;;;;;10.60;2.00;;;19.50;99.90;;;;;;5070921;28;20056;-76
2023/10/12 03:31:40;;;;;;;13.15;2.30;;;;;;;;;;5070238;28;20036;-76
2023/10/12 03:34:29;;;;;;;6.20;1.75;;;;;;;;;;5070830;28;20040;-76
2023/10/12 03:36:51;;;;;;;8.38;1.33;;;;;;;;;;5069680;28;20087;-76
2023/10/12 03:41:54;;;;;;;11.30;2.35;;;19.10;99.90;;;;;;5069884;28;20055;-76
2023/10/12 03:49:59;;;;;;;6.25;1.70;;;;;;;;;;5026468;28;20446;-76
2023/10/12 03:52:28;;;;;;;12.23;2.05;;;19.00;99.90;;;;;;5069926;28;20041;-76
2023/10/12 03:54:55;;;;;;;7.93;1.73;;;19.60;99.90;;;;;;5085825;28;20576;-76
2023/10/12 03:57:45;;;;;;;10.68;1.98;;;19.10;99.90;;;;;;5073895;28;20051;-76
2023/10/12 04:03:21;;;;;;;8.82;1.73;;;19.10;99.90;;;;;;5094507;28;20171;-76
2023/10/12 04:08:19;;;;;;;6.65;1.88;;;19.50;99.90;;;;;;5094761;28;20557;-76
2023/10/12 04:13:55;;;;;;;11.20;1.65;;;19.70;99.90;;;;;;5094630;28;20076;-76
2023/10/12 04:19:29;;;;;;;9.98;2.67;;;19.60;99.90;;;;;;5094072;28;20047;-76
2023/10/12 04:21:33;;;;;;;10.95;2.30;;;19.00;99.90;;;;;;5083321;28;20105;-76
2023/10/12 04:26:38;;;;;;;8.48;1.67;;;18.90;99.90;;;;;;5093934;28;20048;-77
2023/10/12 04:29:21;;;;;;;5.60;1.50;;;19.00;99.90;;;;;;5077176;28;20487;-76
2023/10/12 04:31:49;;;;;;;10.43;2.08;;;19.50;99.90;;;;;;5093305;28;20054;-76
2023/10/12 04:34:18;;;;;;;10.75;1.90;;;18.90;99.90;;;;;;5076797;28;20040;-76
2023/10/12 04:36:48;;;;;;;14.00;2.35;;;19.10;99.90;;;;;;5094046;28;20052;-76
2023/10/12 04:39:24;;;;;;;12.60;2.70;;;19.30;99.90;;;;;;5093829;28;20495;-76
2023/10/12 04:47:05;;;;;;;9.15;1.73;;;;;;;;;;5093903;28;20562;-76
2023/10/12 04:52:16;;;;;;;5.50;1.52;;;;;;;;;;5093238;28;20048;-76
2023/10/12 04:57:26;;;;;;;8.18;2.05;;;19.30;99.90;;;;;;5093775;28;20051;-76
2023/10/12 05:03:03;;;;;;;11.52;2.58;;;;;;;;;;5092884;28;20055;-76
2023/10/12 05:07:54;;;;;;;7.95;2.13;;;19.20;99.90;;;;;;5093241;28;20047;-76
2023/10/12 05:10:31;;;;;;;13.70;2.03;;;18.70;99.90;;;;;;5093054;28;20503;-76
2023/10/12 05:13:04;;;;;;;11.20;2.13;;;19.00;99.90;;;;;;5075554;28;20032;-77
2023/10/12 05:15:42;;;;;;;14.00;2.80;;;18.80;99.90;;;;;;5093154;28;20047;-76
2023/10/12 05:18:08;;;;;;;12.30;2.53;;;19.00;99.90;;;;;;5093111;28;20113;-76
2023/10/12 05:20:34;;;;;;;11.32;2.22;;;18.70;99.90;;;;;;5093243;28;20136;-76
2023/10/12 05:23:02;;;;;;;10.70;2.72;;;;;;;;;;5076044;28;20395;-76
2023/10/12 05:25:48;;;;;;;13.90;2.83;;;19.20;99.90;;;;;;5092977;28;20048;-76
2023/10/12 05:28:27;;;;;;;8.57;2.90;;;18.70;99.90;;;;;;5092552;28;20528;-76
2023/10/12 05:35:59;;;;;;;15.25;3.22;;;18.90;99.90;;;;;;5092761;28;20044;-76
2023/10/12 05:38:34;;;;;;;18.60;3.75;;;;;;;;;;5092969;28;20433;-76
2023/10/12 05:41:00;;;;;;;8.65;2.05;;;18.90;99.90;;;;;;5092749;28;20056;-76
2023/10/12 05:43:30;;;;;;;10.77;2.08;;;18.90;99.90;;;;;;5091556;28;20047;-76
2023/10/12 05:46:01;;;;;;;10.05;2.10;;;18.40;99.90;;;;;;5092338;28;20032;-76
2023/10/12 05:48:26;;;;;;;10.48;2.47;;;18.80;99.90;;;;;;5089847;28;20040;-76
2023/10/12 05:50:53;;;;;;;10.85;3.00;;;18.80;99.90;;;;;;5092209;28;20081;-76
2023/10/12 05:53:20;;;;;;;8.60;2.10;;;;;;;;;;5092233;28;20091;-78
2023/10/12 05:55:47;;;;;;;7.43;2.60;;;18.60;99.90;;;;;;5093037;28;20503;-76
2023/10/12 05:58:15;;;;;;;8.30;1.95;;;;;;;;;;5092471;28;20511;-76
2023/10/12 06:00:45;;;;;;;10.02;2.30;;;18.80;99.90;;;;;;5091835;28;20089;-76
2023/10/12 06:03:15;;;;;;;4.75;2.35;;;18.30;99.90;;;;;;5075029;28;20036;-76
2023/10/12 06:05:43;;;;;;;8.00;1.35;;;18.40;99.90;;;;;;5107895;28;20040;-76
2023/10/12 06:08:10;;;;;;;6.72;2.00;;;18.50;99.90;;;;;;5090128;28;20067;-76
2023/10/12 06:10:41;;;;;;;9.70;3.60;;;18.40;99.90;;;;;;5075233;28;20047;-75
2023/10/12 06:13:15;;;;;;;6.10;1.98;;;18.60;99.90;;;;;;5091975;28;20085;-76
2023/10/12 06:15:42;;;;;;;8.05;1.70;;;18.30;99.90;;;;;;5091791;28;20502;-76
2023/10/12 06:18:21;;;;;;;8.75;2.33;;;18.40;99.90;;;;;;5071926;28;20044;-76
2023/10/12 06:20:58;;;;;;;10.05;1.95;;;18.80;99.90;;;;;;5055159;28;20071;-76
2023/10/12 06:23:30;;;;;;;7.43;2.33;;;18.30;99.90;;;;;;5070818;28;20066;-76
2023/10/12 06:25:56;;;;;;;11.55;2.40;;;18.20;99.90;;;;;;5071655;28;20524;-76
2023/10/12 06:28:23;;;;;;;9.38;1.80;;;18.10;99.90;;;;;;5071904;28;20036;-76
2023/10/12 06:30:50;;;;;;;9.00;1.90;;;;;;;;;;5071720;28;20112;-76
2023/10/12 06:33:17;;;;;;;13.43;2.10;;;;;;;;;;5091656;22;20040;-70
2023/10/12 06:35:58;;;;;;;7.55;1.80;;;;;;;;;;5091556;28;20117;-73
2023/10/12 06:38:39;;;;;;;6.50;1.95;;;18.00;99.90;;;;;;5074466;28;20032;-72
2023/10/12 06:46:20;;;;;;;12.93;3.67;;;18.20;99.90;;;;;;5091517;28;20055;-72
2023/10/12 06:48:47;;;;;;;4.80;1.92;;;;;;;;;;5091869;28;20032;-72
2023/10/12 06:51:13;;;;;;;14.25;3.58;;;18.10;99.90;;;;;;5091012;28;20071;-72
2023/10/12 06:53:41;;;;;;;5.68;2.00;;;18.40;99.90;;;;;;5073910;28;20492;-72
2023/10/12 07:04:27;;;;;;;8.10;2.00;;;18.90;99.90;;;;;;5082328;28;20055;-72
2023/10/12 07:07:11;;;;;;;6.15;2.00;;;;;;;;;;5079054;28;20115;-72
2023/10/12 07:09:40;;;;;;;8.13;1.80;;;;;;;;;;5053565;28;20085;-72
2023/10/12 07:12:19;;;;;;;9.52;2.20;;;19.00;99.90;;;;;;5072453;28;20042;-72
2023/10/12 07:14:53;;;;;;;11.18;2.67;;;;;;;;;;5076824;28;20048;-73
2023/10/12 07:17:27;;;;;;;7.25;1.85;;;18.90;99.90;;;;;;5054943;28;20058;-72
2023/10/12 07:19:56;;;;;;;7.53;1.83;;;;;;;;;;5074494;28;20044;-72
2023/10/12 07:22:22;;;;;;;7.57;1.88;;;;;;;;;;5053326;28;20119;-72
2023/10/12 07:24:53;;;;;;;6.25;1.85;;;19.60;99.90;;;;;;5077176;28;20139;-72
2023/10/12 07:27:19;;;;;;;14.98;2.58;;;;;;;;;;5081189;28;20097;-71
2023/10/12 07:29:47;;;;;;;6.80;2.03;;;;;;;;;;5058641;28;20575;-72
2023/10/12 07:35:05;;;;;;;8.90;1.70;;;;;;;;;;5087289;28;20415;-73
2023/10/12 07:37:41;;;;;;;9.25;1.98;;;;;;;;;;5054818;28;20513;-72
2023/10/12 07:40:22;;;;;;;16.02;2.38;;;19.70;99.90;;;;;;5079027;28;20043;-69
2023/10/12 07:42:49;;;;;;;12.27;1.98;;;;;;;;;;5083856;28;20137;-70
2023/10/12 07:45:15;;;;;;;8.13;1.95;;;19.70;99.90;;;;;;5069821;28;20094;-70
2023/10/12 07:47:42;;;;;;;5.75;1.77;;;19.70;99.90;;;;;;5067082;28;20064;-72
2023/10/12 07:50:25;;;;;;;10.73;3.03;;;19.70;99.90;;;;;;5086432;28;20032;-71
2023/10/12 07:55:41;;;;;;;8.10;1.90;;;;;;;;;;5084612;28;20743;-71
2023/10/12 07:58:12;;;;;;;4.32;1.80;;;19.90;99.90;;;;;;5088129;28;20075;-71
2023/10/12 08:00:41;;;;;;;8.07;2.35;;;;;;;;;;5078791;28;20040;-73
2023/10/12 08:13:15;;;;;;;13.48;2.83;;;19.80;99.90;;;;;;5090057;28;20086;-71
2023/10/12 08:15:55;;;;;;;11.45;2.88;;;20.30;99.90;;;;;;5090027;28;20040;-71
2023/10/12 08:21:24;;;;;;;7.97;2.78;;;20.20;99.90;;;;;;5086308;28;20071;-71
2023/10/12 08:24:37;;;;;;;7.15;1.80;;;20.10;99.90;;;;;;5087396;28;20040;-71
2023/10/12 08:39:38;;;;;;;7.32;1.70;;;20.50;99.90;;;;;;5090114;28;20138;-71
2023/10/12 08:44:51;;;;;;;10.63;1.73;;;20.30;99.90;;;;;;5089232;28;20044;-70
2023/10/12 08:47:44;;;;;;;5.90;1.55;;;20.60;99.90;;;;;;5091537;28;20051;-71
2023/10/12 08:52:50;;;;;;;10.13;1.50;;;20.50;99.90;;;;;;5093551;28;20039;-71
2023/10/12 08:55:24;;;;;;;11.32;1.65;;;20.40;99.90;;;;;;5093440;28;20086;-70
2023/10/12 08:58:01;;;;;;;15.35;2.00;;;20.50;99.90;;;;;;5093376;28;20063;-70
2023/10/12 09:05:51;;;;;;;12.60;2.35;;;20.70;99.90;;;;;;5093101;28;20052;-71
2023/10/12 09:10:49;;;;;;;14.18;1.58;;;20.80;99.90;;;;;;5094440;28;20094;-71
2023/10/12 09:13:17;;;;;;;10.02;2.13;;;20.70;99.90;;;;;;5092568;28;20043;-71
2023/10/12 09:15:47;;;;;;;13.43;2.80;;;20.70;99.90;;;;;;5092596;28;20028;-70
2023/10/12 09:18:18;;;;;;;8.52;2.47;;;20.70;99.90;;;;;;5089879;28;20028;-70
2023/10/12 09:23:28;;;;;;;5.78;1.55;;;;;;;;;;5089869;28;20040;-71
2023/10/12 09:36:43;;;;;;;10.38;1.38;;;21.50;99.90;;;;;;5092289;28;20135;-71
2023/10/12 09:39:12;;;;;;;8.05;1.60;;;21.80;99.90;;;;;;5091896;28;20046;-70
2023/10/12 09:41:40;;;;;;;14.40;2.92;;;21.60;99.90;;;;;;5075721;28;20035;-71
2023/10/12 09:44:12;;;;;;;10.38;2.10;;;21.70;99.90;;;;;;5092463;28;20036;-71
2023/10/12 09:46:46;;;;;;;4.03;1.48;;;21.60;99.90;;;;;;5092689;28;20476;-71
2023/10/12 09:49:25;;;;;;;11.02;1.80;;;21.60;99.90;;;;;;5092412;28;20035;-70
2023/10/12 09:51:59;;;;;;;7.07;1.70;;;20.30;99.90;;;;;;5092109;28;20057;-70
2023/10/12 09:54:45;;;;;;;12.93;2.22;;;22.10;99.90;;;;;;5092299;28;20126;-70
2023/10/12 09:57:50;;;;;;;7.55;1.85;;;22.10;99.90;;;;;;5071139;28;20036;-70
2023/10/12 10:02:55;;;;;;;9.93;2.10;;;22.10;99.90;;;;;;5068913;28;20086;-70
2023/10/12 10:05:39;;;;;;;9.85;1.60;;;22.00;99.90;;;;;;5092080;28;20044;-71
2023/10/12 10:08:06;;;;;;;6.93;1.70;;;21.90;99.90;;;;;;5092061;28;20036;-70
2023/10/12 10:10:34;;;;;;;7.82;1.73;;;22.00;99.90;;;;;;5074302;28;20039;-70
2023/10/12 10:13:01;;;;;;;10.10;1.75;;;21.90;99.90;;;;;;5091248;28;20039;-70
2023/10/12 10:15:38;;;;;;;9.02;2.13;;;22.10;99.90;;;;;;5091479;28;20042;-70
2023/10/12 10:18:14;;;;;;;6.93;1.52;;;22.20;99.90;;;;;;5091577;28;20499;-71
2023/10/12 10:20:46;;;;;;;9.32;1.88;;;;;;;;;;5088004;28;20044;-69
2023/10/12 10:23:19;;;;;;;8.02;1.60;;;22.10;99.90;;;;;;5091350;28;20046;-70
2023/10/12 10:25:56;;;;;;;11.75;1.90;;;22.50;99.90;;;;;;5072858;28;20115;-70
2023/10/12 10:28:32;;;;;;;5.85;1.40;;;22.50;99.90;;;;;;5091635;28;20037;-71
2023/10/12 10:30:59;;;;;;;12.20;1.90;;;22.50;99.90;;;;;;5074642;28;20075;-71
2023/10/12 10:33:26;;;;;;;7.25;1.60;;;22.20;99.90;;;;;;5090686;28;20035;-69
2023/10/12 10:38:53;;;;;;;10.40;2.30;;;22.20;99.90;;;;;;5087900;28;20047;-70
2023/10/12 10:44:16;;;;;;;8.75;2.30;;;;;;;;;;5086466;28;20570;-70
2023/10/12 10:46:46;;;;;;;13.77;3.50;;;22.30;99.90;;;;;;5071205;28;20128;-71
2023/10/12 10:49:16;;;;;;;6.82;1.95;;;22.40;99.90;;;;;;5084901;28;20044;-70
2023/10/12 10:51:55;;;;;;;9.18;1.52;;;22.50;99.90;;;;;;5076456;28;20082;-70
2023/10/12 10:54:22;;;;;;;13.38;1.88;;;22.50;99.90;;;;;;5081002;28;20606;-70
2023/10/12 10:56:48;;;;;;;5.15;1.80;;;22.30;99.90;;;;;;5085274;28;20140;-71
2023/10/12 10:59:17;;;;;;;8.43;1.70;;;22.60;99.90;;;;;;5078617;28;20063;-72
2023/10/12 11:01:48;;;;;;;11.13;1.80;;;22.50;99.90;;;;;;5073484;28;20040;-71
2023/10/12 11:04:19;;;;;;;13.05;2.08;;;22.30;99.90;;;;;;5073672;28;20071;-71
2023/10/12 11:06:47;;;;;;;6.13;1.98;;;22.50;99.90;;;;;;5090546;28;20043;-71
2023/10/12 11:09:16;;;;;;;9.35;1.77;;;22.50;99.90;;;;;;5090550;28;20050;-71
2023/10/12 11:11:53;;;;;;;9.93;3.65;;;22.40;99.90;;;;;;5090636;28;20036;-71
2023/10/12 11:14:22;;;;;;;10.15;1.40;;;22.50;99.90;;;;;;5091077;28;20048;-70
2023/10/12 11:16:48;;;;;;;10.10;1.70;;;22.70;99.90;;;;;;5091110;28;20048;-71
2023/10/12 11:19:18;;;;;;;8.15;1.80;;;22.60;99.90;;;;;;5090873;28;20487;-71
2023/10/12 11:21:57;;;;;;;10.77;1.60;;;22.30;99.90;;;;;;5090566;28;20032;-71
2023/10/12 11:24:24;;;;;;;10.45;1.75;;;22.30;99.90;;;;;;5090679;28;20066;-71
2023/10/12 11:26:54;;;;;;;7.68;1.88;;;22.10;99.90;;;;;;5074022;28;20438;-70
2023/10/12 11:29:22;;;;;;;5.82;1.50;;;22.20;99.90;;;;;;5090922;28;20090;-71
2023/10/12 11:32:11;;;;;;;8.27;1.92;;;22.20;99.90;;;;;;5090093;28;20048;-71
2023/10/12 11:34:44;;;;;;;10.27;2.28;;;22.10;99.90;;;;;;5090666;28;20048;-72
2023/10/12 11:37:13;;;;;;;6.10;1.10;;;22.30;99.90;;;;;;5090511;28;20096;-70
2023/10/12 11:39:43;;;;;;;9.32;1.90;;;22.20;99.90;;;;;;5073663;28;20032;-71
2023/10/12 11:42:12;;;;;;;7.22;1.50;;;22.00;99.90;;;;;;5090297;28;20566;-71
2023/10/12 11:44:42;;;;;;;9.77;2.20;;;22.00;99.90;;;;;;5090596;28;20486;-71
2023/10/12 11:47:14;;;;;;;7.53;1.63;;;22.00;99.90;;;;;;5090545;28;20229;-71
2023/10/12 11:49:47;;;;;;;9.15;1.63;;;22.10;99.90;;;;;;5090389;28;20085;-71
2023/10/12 11:52:14;;;;;;;9.82;2.42;;;21.90;99.90;;;;;;5090097;28;20040;-72
2023/10/12 11:54:40;;;;;;;9.43;1.83;;;21.90;99.90;;;;;;5090177;28;20063;-71
2023/10/12 11:57:06;;;;;;;7.70;1.50;;;22.00;99.90;;;;;;5075290;28;20044;-71
2023/10/12 11:59:35;;;;;;;11.23;1.65;;;21.90;99.90;;;;;;5053646;28;20040;-72
2023/10/12 12:02:09;;;;;;;7.40;1.35;;;22.00;99.90;;;;;;5070009;28;20044;-71
2023/10/12 12:04:40;;;;;;;7.15;1.55;;;22.00;99.90;;;;;;5069718;28;20041;-71
2023/10/12 12:07:10;;;;;;;7.03;1.30;;;22.00;99.90;;;;;;5052144;28;20036;-71
2023/10/12 12:09:39;;;;;;;10.07;2.22;;;21.80;99.90;;;;;;5087816;28;20028;-72
2023/10/12 12:12:07;;;;;;;9.35;2.00;;;22.00;99.90;;;;;;5072724;28;20039;-71
2023/10/12 12:14:33;;;;;;;10.63;1.65;;;22.10;99.90;;;;;;5087883;28;20397;-71
2023/10/12 12:17:01;;;;;;;15.55;2.53;;;;;;;;;;5073208;28;20036;-71
2023/10/12 12:19:26;;;;;;;7.35;1.42;;;22.00;99.90;;;;;;5073026;28;20499;-71
2023/10/12 12:21:53;;;;;;;5.95;1.55;;;21.90;99.90;;;;;;5091439;28;20055;-71
2023/10/12 12:24:25;;;;;;;6.80;1.73;;;21.80;99.90;;;;;;5077663;28;20573;-71
2023/10/12 12:26:54;;;;;;;8.70;1.63;;;21.90;99.90;;;;;;5092427;28;20066;-71
2023/10/12 12:29:27;;;;;;;8.07;1.25;;;;;;;;;;5094313;28;20085;-71
2023/10/12 12:31:54;;;;;;;10.23;1.70;;;22.00;99.90;;;;;;5090921;28;20071;-71
2023/10/12 12:34:38;;;;;;;10.70;2.05;;;21.80;99.90;;;;;;5077682;28;20270;-71
2023/10/12 12:37:07;;;;;;;6.10;1.52;;;21.70;99.90;;;;;;5093483;28;20040;-71
2023/10/12 12:39:34;;;;;;;11.80;1.95;;;21.90;99.90;;;;;;5093967;28;20052;-70
2023/10/12 12:42:01;;;;;;;6.10;1.10;;;21.90;99.90;;;;;;5076490;28;20611;-71
2023/10/12 12:44:27;;;;;;;7.72;1.50;;;21.80;99.90;;;;;;5093630;28;20217;-71
2023/10/12 12:46:53;;;;;;;6.88;1.42;;;21.80;99.90;;;;;;5076669;28;20076;-71
2023/10/12 12:49:19;;;;;;;4.82;1.42;;;21.90;99.90;;;;;;5093775;28;20085;-71
2023/10/12 12:51:45;;;;;;;6.93;1.63;;;21.80;99.90;;;;;;5093299;28;20083;-71
2023/10/12 12:54:11;;;;;;;8.63;1.75;;;;;;;;;;5076241;28;20071;-71
2023/10/12 12:56:37;;;;;;;8.13;1.38;;;21.70;99.90;;;;;;5091305;28;20047;-71
2023/10/12 12:59:04;;;;;;;6.63;1.45;;;21.80;99.90;;;;;;5092961;28;20032;-71
2023/10/12 13:01:31;;;;;;;12.95;1.70;;;;;;;;;;5092888;28;20047;-70
2023/10/12 13:03:57;;;;;;;5.90;1.48;;;21.50;99.90;;;;;;5093542;28;20071;-70
2023/10/12 13:06:26;;;;;;;6.00;1.55;;;21.70;99.90;;;;;;5093247;28;20507;-71
2023/10/12 13:08:52;;;;;;;4.70;1.35;;;21.70;99.90;;;;;;5076522;28;20035;-71
2023/10/12 13:11:21;;;;;;;8.43;1.83;;;21.70;99.90;;;;;;5092699;28;20038;-71
2023/10/12 13:13:50;;;;;;;7.57;1.63;;;21.70;99.90;;;;;;5075844;28;20058;-70
2023/10/12 13:16:16;;;;;;;8.35;1.13;;;21.80;99.90;;;;;;5092947;28;20155;-71
2023/10/12 13:18:47;;;;;;;5.88;1.35;;;21.70;99.90;;;;;;5093092;28;20032;-71
2023/10/12 13:21:16;;;;;;;6.68;1.70;;;21.70;99.90;;;;;;5092958;28;20043;-70
2023/10/12 13:23:46;;;;;;;7.47;1.75;;;21.60;99.90;;;;;;5092690;28;20702;-71
2023/10/12 13:26:13;;;;;;;8.10;1.55;;;21.50;99.90;;;;;;5092468;28;20038;-71
2023/10/12 13:28:41;;;;;;;7.85;1.65;;;21.80;99.90;;;;;;5092738;28;20085;-71
2023/10/12 13:31:10;;;;;;;9.70;1.80;;;21.70;99.90;;;;;;5092506;28;20032;-71
2023/10/12 13:33:38;;;;;;;8.68;1.23;;;21.60;99.90;;;;;;5074977;28;20068;-71
2023/10/12 13:36:04;;;;;;;10.80;2.10;;;21.60;99.90;;;;;;5091623;28;20055;-71
2023/10/12 13:38:33;;;;;;;9.45;2.00;;;21.50;99.90;;;;;;5091269;28;20039;-71
2023/10/12 13:41:01;;;;;;;8.93;1.70;;;;;;;;;;5075522;28;20052;-73
2023/10/12 13:43:30;;;;;;;11.55;1.33;;;21.30;99.90;;;;;;5075665;28;20072;-71
2023/10/12 13:45:56;;;;;;;9.70;1.67;;;;;;;;;;5092552;28;20036;-73
2023/10/12 13:48:27;;;;;;;12.85;2.58;;;21.40;99.90;;;;;;5075666;28;20042;-72
2023/10/12 13:51:01;;;;;;;9.60;1.58;;;21.50;99.90;;;;;;5092346;28;20036;-72
2023/10/12 13:53:27;;;;;;;7.85;1.60;;;21.40;99.90;;;;;;5092752;28;20082;-72
2023/10/12 13:56:01;;;;;;;12.18;1.70;;;21.50;99.90;;;;;;5092636;28;20459;-73
2023/10/12 13:58:26;;;;;;;6.82;1.48;;;21.30;99.90;;;;;;5092718;28;20458;-73
2023/10/12 14:00:54;;;;;;;9.43;1.60;;;21.20;99.90;;;;;;5092032;28;20124;-73
2023/10/12 14:03:28;;;;;;;5.18;1.42;;;21.40;99.90;;;;;;5091454;28;20118;-73
2023/10/12 14:05:57;;;;;;;9.07;2.65;;;21.20;99.90;;;;;;5074856;28;20119;-73
2023/10/12 14:08:28;;;;;;;11.80;1.92;;;21.40;99.90;;;;;;5088983;28;20131;-73
2023/10/12 14:10:57;;;;;;;10.15;1.77;;;21.00;99.90;;;;;;5091474;28;20028;-73
2023/10/12 14:13:23;;;;;;;14.57;2.17;;;21.10;99.90;;;;;;5088832;28;20108;-73
2023/10/12 14:15:48;;;;;;;8.05;2.00;;;21.10;99.90;;;;;;5091455;28;20036;-70
2023/10/12 14:18:17;;;;;;;8.25;1.40;;;21.00;99.90;;;;;;5091308;28;20028;-73
2023/10/12 14:20:47;;;;;;;8.45;2.10;;;21.10;99.90;;;;;;5090831;28;20033;-73
2023/10/12 14:23:13;;;;;;;10.18;1.90;;;21.10;99.90;;;;;;5071437;28;20040;-73
2023/10/12 14:25:47;;;;;;;9.68;1.70;;;21.20;99.90;;;;;;5071490;28;20037;-73
2023/10/12 14:28:17;;;;;;;11.68;1.70;;;21.00;99.90;;;;;;5071716;28;20056;-73
2023/10/12 14:30:47;;;;;;;8.50;1.70;;;20.80;99.90;;;;;;5054756;28;20043;-73
2023/10/12 14:33:18;;;;;;;9.88;1.80;;;20.80;99.90;;;;;;5071419;28;20040;-73
2023/10/12 14:35:46;;;;;;;4.75;1.67;;;20.80;99.90;;;;;;5054675;28;20037;-73
2023/10/12 14:38:14;;;;;;;8.32;2.17;;;20.90;99.90;;;;;;5071536;28;20051;-73
2023/10/12 14:40:42;;;;;;;10.80;1.88;;;20.70;99.90;;;;;;5071171;28;20102;-73
2023/10/12 14:43:11;;;;;;;13.90;1.90;;;20.70;99.90;;;;;;5071160;28;20041;-72
2023/10/12 14:45:48;;;;;;;8.48;1.67;;;20.90;99.90;;;;;;5070303;28;20417;-73
2023/10/12 14:48:16;;;;;;;5.40;1.58;;;20.80;99.90;;;;;;5071164;28;20083;-73
2023/10/12 14:50:47;;;;;;;5.40;1.40;;;20.90;99.90;;;;;;5070639;28;20047;-70
2023/10/12 14:53:16;;;;;;;8.95;1.60;;;21.00;99.90;;;;;;5070937;28;20044;-71
2023/10/12 14:55:51;;;;;;;7.93;1.77;;;20.80;99.90;;;;;;5074136;28;20105;-71
2023/10/12 14:58:18;;;;;;;8.80;1.90;;;21.00;99.90;;;;;;5091110;28;20525;-70
2023/10/12 15:00:45;;;;;;;9.65;1.88;;;21.00;99.90;;;;;;5090780;28;20491;-71
2023/10/12 15:03:15;;;;;;;7.50;1.63;;;20.80;99.90;;;;;;5091340;28;20032;-71
2023/10/12 15:05:41;;;;;;;8.52;1.95;;;20.80;99.90;;;;;;5091016;28;20040;-71
2023/10/12 15:08:08;;;;;;;9.63;1.65;;;;;;;;;;5091158;28;20426;-71
2023/10/12 15:10:43;;;;;;;8.80;1.50;;;20.60;99.90;;;;;;5090796;28;20046;-71
2023/10/12 15:13:12;;;;;;;8.82;2.67;;;20.70;99.90;;;;;;5090834;28;20040;-71
2023/10/12 15:15:47;;;;;;;10.73;2.10;;;20.70;99.90;;;;;;5090909;28;20043;-71
2023/10/12 15:18:13;;;;;;;12.68;3.03;;;20.80;99.90;;;;;;5091060;28;20036;-71
2023/10/12 15:20:39;;;;;;;6.90;1.30;;;20.50;99.90;;;;;;5090605;28;20506;-72
2023/10/12 15:23:06;;;;;;;9.68;2.42;;;20.60;99.90;;;;;;5090374;28;20040;-71
2023/10/12 15:25:34;;;;;;;7.15;1.50;;;20.70;99.90;;;;;;5090586;28;20495;-71
2023/10/12 15:28:01;;;;;;;11.85;2.22;;;20.50;99.90;;;;;;5090618;28;20031;-71